createdAt,value
2018-09-03T00:00:29.322Z,14.50
2018-09-03T00:02:58.859Z,14.50
2018-09-03T00:05:28.221Z,14.40
2018-09-03T00:07:57.784Z,14.40
2018-09-03T00:10:27.147Z,14.50
2018-09-03T00:12:56.587Z,14.50
2018-09-03T00:15:25.955Z,14.40
2018-09-03T00:17:55.497Z,14.40
2018-09-03T00:20:24.900Z,14.40
2018-09-03T00:22:54.318Z,14.40
2018-09-03T00:25:23.673Z,14.40
2018-09-03T00:27:53.227Z,14.50
2018-09-03T00:30:22.580Z,14.40
2018-09-03T00:32:57.302Z,14.50
2018-09-03T00:35:32.103Z,14.50
2018-09-03T00:38:06.830Z,14.50
2018-09-03T00:41:40.249Z,14.50
2018-09-03T00:44:15.046Z,14.50
2018-09-03T00:46:49.681Z,14.50
2018-09-03T00:49:19.055Z,14.60
2018-09-03T00:51:48.522Z,14.60
2018-09-03T00:54:17.907Z,14.60
2018-09-03T00:56:47.451Z,14.60
2018-09-03T00:59:16.814Z,14.60
2018-09-03T01:01:46.395Z,14.60
2018-09-03T01:04:15.768Z,14.60
2018-09-03T01:06:45.265Z,14.60
2018-09-03T01:09:14.629Z,14.60
2018-09-03T01:11:43.982Z,14.60
2018-09-03T01:14:13.469Z,14.60
2018-09-03T01:16:42.818Z,14.60
2018-09-03T01:19:12.274Z,14.60
2018-09-03T01:21:41.625Z,14.60
2018-09-03T01:24:11.183Z,14.60
2018-09-03T01:26:40.538Z,14.60
2018-09-03T01:29:10.103Z,14.60
2018-09-03T01:31:39.478Z,14.60
2018-09-03T01:34:09.011Z,14.60
2018-09-03T01:36:38.361Z,14.60
2018-09-03T01:39:09.492Z,14.60
2018-09-03T01:41:38.843Z,14.60
2018-09-03T01:44:08.365Z,14.70
2018-09-03T01:46:37.729Z,14.60
2018-09-03T01:49:07.256Z,14.60
2018-09-03T01:51:36.654Z,14.60
2018-09-03T01:54:06.415Z,14.50
2018-09-03T01:56:35.799Z,14.50
2018-09-03T01:59:05.381Z,14.50
2018-09-03T02:01:34.758Z,14.50
2018-09-03T02:04:04.312Z,14.50
2018-09-03T02:06:33.677Z,14.50
2018-09-03T02:09:03.458Z,14.50
2018-09-03T02:11:32.816Z,14.50
2018-09-03T02:14:02.306Z,14.50
2018-09-03T02:16:31.824Z,14.40
2018-09-03T02:19:01.361Z,14.40
2018-09-03T02:21:30.750Z,14.40
2018-09-03T02:24:00.253Z,14.40
2018-09-03T02:26:29.644Z,14.50
2018-09-03T02:28:59.129Z,14.40
2018-09-03T02:31:28.491Z,14.40
2018-09-03T02:33:58.060Z,14.40
2018-09-03T02:36:27.433Z,14.50
2018-09-03T02:38:56.987Z,14.50
2018-09-03T02:41:26.369Z,14.50
2018-09-03T02:43:55.861Z,14.50
2018-09-03T02:46:25.215Z,14.50
2018-09-03T02:48:54.665Z,14.50
2018-09-03T02:51:24.046Z,14.50
2018-09-03T02:53:53.554Z,14.50
2018-09-03T02:56:23.100Z,14.50
2018-09-03T02:58:52.485Z,14.50
2018-09-03T03:01:21.869Z,14.50
2018-09-03T03:03:51.373Z,14.50
2018-09-03T03:06:20.738Z,14.50
2018-09-03T03:08:50.305Z,14.50
2018-09-03T03:11:19.667Z,14.50
2018-09-03T03:13:49.186Z,14.50
2018-09-03T03:16:18.565Z,14.50
2018-09-03T03:18:48.130Z,14.50
2018-09-03T03:21:17.494Z,14.50
2018-09-03T03:23:47.016Z,14.50
2018-09-03T03:26:16.388Z,14.50
2018-09-03T03:28:45.918Z,14.50
2018-09-03T03:31:15.291Z,14.50
2018-09-03T03:33:44.847Z,14.50
2018-09-03T03:36:14.249Z,14.50
2018-09-03T03:38:43.738Z,14.50
2018-09-03T03:41:13.112Z,14.50
2018-09-03T03:43:42.635Z,14.50
2018-09-03T03:46:11.991Z,14.50
2018-09-03T03:48:42.020Z,14.50
2018-09-03T03:51:11.375Z,14.40
2018-09-03T03:53:40.870Z,14.40
2018-09-03T03:56:10.235Z,14.40
2018-09-03T03:58:39.778Z,14.40
2018-09-03T04:01:09.152Z,14.40
2018-09-03T04:03:38.706Z,14.40
2018-09-03T04:06:08.059Z,14.40
2018-09-03T04:08:37.666Z,14.40
2018-09-03T04:11:07.233Z,14.40
2018-09-03T04:13:36.806Z,14.40
2018-09-03T04:16:06.284Z,14.40
2018-09-03T04:18:35.706Z,14.40
2018-09-03T04:21:05.196Z,14.40
2018-09-03T04:23:35.755Z,14.40
2018-09-03T04:26:05.127Z,14.40
2018-09-03T04:28:34.706Z,14.40
2018-09-03T04:31:04.008Z,14.40
2018-09-03T04:33:33.568Z,14.40
2018-09-03T04:36:03.497Z,14.40
2018-09-03T04:38:32.988Z,14.40
2018-09-03T04:41:02.352Z,14.40
2018-09-03T04:43:31.883Z,14.40
2018-09-03T04:46:01.230Z,14.50
2018-09-03T04:48:30.682Z,14.40
2018-09-03T04:51:00.059Z,14.50
2018-09-03T04:53:29.614Z,14.50
2018-09-03T04:55:58.989Z,14.50
2018-09-03T04:58:28.446Z,14.50
2018-09-03T05:00:57.810Z,14.60
2018-09-03T05:03:27.321Z,14.50
2018-09-03T05:05:56.744Z,14.60
2018-09-03T05:08:26.213Z,14.50
2018-09-03T05:10:55.583Z,14.50
2018-09-03T05:13:26.159Z,14.50
2018-09-03T05:15:55.514Z,14.40
2018-09-03T05:18:25.061Z,14.40
2018-09-03T05:20:54.419Z,14.40
2018-09-03T05:23:23.967Z,14.40
2018-09-03T05:25:53.334Z,14.40
2018-09-03T05:28:22.864Z,14.40
2018-09-03T05:30:52.234Z,14.40
2018-09-03T05:33:21.770Z,14.40
2018-09-03T05:35:51.139Z,14.50
2018-09-03T05:38:20.714Z,14.40
2018-09-03T05:40:50.111Z,14.50
2018-09-03T05:43:19.660Z,14.50
2018-09-03T05:45:48.967Z,14.60
2018-09-03T05:48:18.394Z,14.60
2018-09-03T05:50:47.848Z,14.60
2018-09-03T05:53:17.298Z,14.60
2018-09-03T05:55:46.715Z,14.60
2018-09-03T05:58:16.190Z,14.60
2018-09-03T06:00:45.567Z,14.60
2018-09-03T06:03:15.111Z,14.70
2018-09-03T06:05:44.460Z,14.80
2018-09-03T06:08:14.035Z,14.80
2018-09-03T06:10:43.479Z,14.90
2018-09-03T06:13:12.937Z,15.00
2018-09-03T06:15:42.280Z,15.00
2018-09-03T06:18:11.849Z,15.00
2018-09-03T06:20:41.217Z,15.10
2018-09-03T06:23:10.754Z,15.10
2018-09-03T06:25:40.110Z,15.10
2018-09-03T06:28:09.806Z,15.10
2018-09-03T06:30:39.172Z,15.10
2018-09-03T06:33:08.675Z,15.10
2018-09-03T06:35:38.022Z,15.20
2018-09-03T06:38:07.694Z,15.20
2018-09-03T06:40:37.181Z,15.30
2018-09-03T06:43:06.784Z,15.40
2018-09-03T06:45:36.273Z,15.40
2018-09-03T06:48:05.661Z,15.50
2018-09-03T06:50:35.190Z,15.50
2018-09-03T06:53:04.554Z,15.60
2018-09-03T06:55:34.108Z,15.60
2018-09-03T06:58:03.490Z,15.70
2018-09-03T07:00:32.906Z,15.60
2018-09-03T07:03:02.274Z,15.70
2018-09-03T07:05:31.799Z,15.70
2018-09-03T07:08:01.170Z,15.80
2018-09-03T07:10:30.518Z,15.90
2018-09-03T07:13:04.082Z,15.90
2018-09-03T07:15:33.805Z,16.00
2018-09-03T07:18:03.582Z,15.90
2018-09-03T07:20:32.937Z,15.90
2018-09-03T07:23:02.598Z,15.90
2018-09-03T07:25:31.961Z,15.90
2018-09-03T07:28:01.446Z,15.90
2018-09-03T07:30:30.821Z,15.80
2018-09-03T07:33:00.354Z,15.90
2018-09-03T07:35:29.717Z,16.00
2018-09-03T07:38:00.181Z,16.00
2018-09-03T07:40:29.541Z,16.00
2018-09-03T07:42:59.122Z,16.00
2018-09-03T07:45:28.482Z,16.10
2018-09-03T07:47:57.996Z,16.30
2018-09-03T07:50:27.370Z,16.40
2018-09-03T07:52:56.897Z,16.30
2018-09-03T07:55:26.263Z,16.50
2018-09-03T07:57:55.820Z,16.60
2018-09-03T08:00:25.183Z,16.60
2018-09-03T08:02:54.619Z,16.70
2018-09-03T08:05:23.990Z,16.90
2018-09-03T08:07:53.550Z,17.00
2018-09-03T08:10:22.914Z,16.90
2018-09-03T08:12:52.359Z,17.00
2018-09-03T08:15:21.892Z,17.10
2018-09-03T08:17:51.314Z,17.10
2018-09-03T08:20:20.751Z,16.90
2018-09-03T08:22:50.200Z,17.10
2018-09-03T08:25:19.765Z,17.20
2018-09-03T08:27:49.126Z,17.40
2018-09-03T08:30:18.694Z,17.40
2018-09-03T08:32:48.107Z,17.70
2018-09-03T08:35:17.707Z,17.90
2018-09-03T08:37:47.054Z,18.10
2018-09-03T08:40:16.418Z,18.40
2018-09-03T08:42:45.793Z,18.40
2018-09-03T08:45:15.282Z,18.50
2018-09-03T08:47:44.669Z,18.60
2018-09-03T08:50:14.189Z,18.60
2018-09-03T08:52:43.555Z,18.50
2018-09-03T08:55:13.133Z,18.60
2018-09-03T08:57:42.486Z,18.90
2018-09-03T09:00:11.862Z,18.70
2018-09-03T09:02:41.428Z,18.30
2018-09-03T09:05:10.766Z,18.30
2018-09-03T09:07:40.304Z,18.20
2018-09-03T09:10:09.669Z,18.30
2018-09-03T09:12:39.086Z,18.10
2018-09-03T09:15:08.636Z,18.10
2018-09-03T09:17:38.039Z,18.10
2018-09-03T09:20:08.531Z,18.10
2018-09-03T09:22:37.901Z,18.30
2018-09-03T09:25:07.565Z,18.60
2018-09-03T09:27:36.875Z,18.80
2018-09-03T09:30:06.708Z,19.20
2018-09-03T09:32:36.079Z,19.40
2018-09-03T09:35:05.579Z,19.00
2018-09-03T09:37:34.953Z,19.10
2018-09-03T09:40:04.521Z,19.20
2018-09-03T09:42:33.926Z,19.40
2018-09-03T09:45:03.502Z,19.30
2018-09-03T09:47:32.859Z,19.10
2018-09-03T09:50:02.433Z,19.10
2018-09-03T09:52:32.061Z,19.20
2018-09-03T09:55:01.874Z,19.20
2018-09-03T09:57:31.162Z,19.10
2018-09-03T10:00:00.740Z,18.90
2018-09-03T10:02:30.110Z,18.90
2018-09-03T10:04:59.660Z,18.90
2018-09-03T10:07:29.022Z,18.90
2018-09-03T10:09:58.561Z,18.90
2018-09-03T10:12:32.920Z,19.00
2018-09-03T10:15:02.874Z,19.00
2018-09-03T10:17:32.443Z,18.90
2018-09-03T10:20:01.907Z,18.80
2018-09-03T10:22:31.267Z,18.60
2018-09-03T10:25:00.810Z,18.80
2018-09-03T10:27:30.200Z,18.90
2018-09-03T10:29:59.618Z,19.20
2018-09-03T10:32:30.273Z,19.40
2018-09-03T10:34:59.774Z,19.60
2018-09-03T10:37:29.128Z,20.00
2018-09-03T10:39:58.550Z,20.10
2018-09-03T10:42:28.503Z,20.20
2018-09-03T10:44:57.970Z,20.30
2018-09-03T10:47:27.425Z,20.40
2018-09-03T10:49:56.784Z,20.80
2018-09-03T10:52:26.134Z,20.90
2018-09-03T10:54:55.574Z,20.70
2018-09-03T10:57:25.291Z,20.60
2018-09-03T10:59:54.694Z,20.50
2018-09-03T11:02:24.037Z,20.50
2018-09-03T11:04:53.503Z,20.30
2018-09-03T11:07:22.867Z,20.10
2018-09-03T11:09:52.317Z,20.30
2018-09-03T11:12:21.665Z,20.30
2018-09-03T11:14:51.134Z,20.00
2018-09-03T11:17:20.513Z,19.90
2018-09-03T11:19:55.573Z,19.80
2018-09-03T11:22:25.160Z,19.70
2018-09-03T11:24:54.898Z,19.50
2018-09-03T11:27:24.269Z,19.40
2018-09-03T11:29:53.654Z,19.30
2018-09-03T11:32:23.021Z,19.30
2018-09-03T11:34:52.477Z,19.20
2018-09-03T11:37:21.853Z,19.10
2018-09-03T11:39:51.275Z,19.10
2018-09-03T11:42:20.640Z,19.00
2018-09-03T11:44:50.161Z,18.90
2018-09-03T11:47:19.517Z,19.00
2018-09-03T11:49:49.229Z,18.90
2018-09-03T11:52:18.613Z,18.90
2018-09-03T11:54:48.102Z,18.90
2018-09-03T11:57:17.475Z,18.90
2018-09-03T11:59:46.899Z,19.10
2018-09-03T12:02:16.270Z,19.00
2018-09-03T12:04:45.710Z,19.10
2018-09-03T12:07:15.118Z,19.00
2018-09-03T12:09:44.608Z,19.00
2018-09-03T12:12:13.972Z,19.00
2018-09-03T12:14:45.412Z,19.10
2018-09-03T12:17:14.768Z,19.10
2018-09-03T12:19:44.179Z,19.20
2018-09-03T12:22:13.545Z,19.00
2018-09-03T12:24:42.986Z,19.00
2018-09-03T12:27:12.354Z,19.00
2018-09-03T12:29:41.786Z,18.90
2018-09-03T12:32:11.172Z,19.00
2018-09-03T12:34:40.590Z,18.90
2018-09-03T12:37:09.951Z,19.00
2018-09-03T12:39:39.388Z,18.80
2018-09-03T12:42:08.770Z,18.80
2018-09-03T12:44:38.206Z,18.90
2018-09-03T12:47:07.598Z,19.10
2018-09-03T12:49:37.018Z,19.10
2018-09-03T12:52:06.597Z,19.00
2018-09-03T12:54:36.018Z,19.10
2018-09-03T12:57:05.410Z,19.10
2018-09-03T12:59:34.814Z,19.20
2018-09-03T13:02:04.162Z,19.30
2018-09-03T13:04:33.668Z,19.50
2018-09-03T13:07:02.996Z,19.70
2018-09-03T13:09:32.426Z,19.80
2018-09-03T13:12:01.771Z,20.00
2018-09-03T13:14:31.487Z,20.00
2018-09-03T13:17:00.943Z,20.10
2018-09-03T13:19:30.346Z,20.00
2018-09-03T13:21:59.732Z,20.00
2018-09-03T13:24:29.090Z,19.80
2018-09-03T13:26:58.542Z,19.90
2018-09-03T13:29:27.906Z,19.80
2018-09-03T13:31:57.359Z,19.70
2018-09-03T13:34:26.717Z,19.60
2018-09-03T13:36:56.142Z,19.50
2018-09-03T13:39:25.510Z,19.30
2018-09-03T13:41:55.017Z,19.20
2018-09-03T13:44:24.350Z,19.00
2018-09-03T13:46:53.765Z,18.90
2018-09-03T13:49:23.178Z,18.90
2018-09-03T13:51:52.589Z,18.80
2018-09-03T13:54:22.035Z,18.80
2018-09-03T13:56:51.487Z,18.80
2018-09-03T13:59:20.855Z,18.70
2018-09-03T14:01:50.294Z,18.80
2018-09-03T14:04:19.654Z,18.80
2018-09-03T14:06:49.107Z,18.70
2018-09-03T14:09:18.443Z,18.80
2018-09-03T14:11:47.849Z,18.80
2018-09-03T14:14:17.424Z,18.90
2018-09-03T14:16:46.790Z,18.80
2018-09-03T14:19:16.211Z,18.80
2018-09-03T14:21:45.575Z,18.70
2018-09-03T14:24:15.014Z,18.70
2018-09-03T14:26:44.371Z,18.60
2018-09-03T14:29:13.862Z,18.70
2018-09-03T14:31:43.217Z,18.70
2018-09-03T14:34:12.778Z,18.50
2018-09-03T14:36:42.152Z,18.40
2018-09-03T14:39:12.499Z,18.30
2018-09-03T14:41:41.871Z,18.30
2018-09-03T14:44:11.364Z,18.20
2018-09-03T14:46:40.726Z,18.20
2018-09-03T14:49:10.175Z,18.20
2018-09-03T14:51:39.531Z,18.10
2018-09-03T14:54:08.976Z,18.10
2018-09-03T14:56:38.322Z,18.00
2018-09-03T14:59:07.771Z,17.90
2018-09-03T15:01:37.122Z,17.80
2018-09-03T15:04:06.708Z,17.80
2018-09-03T15:06:36.034Z,17.90
2018-09-03T15:09:08.035Z,17.80
2018-09-03T15:11:37.415Z,17.90
2018-09-03T15:14:07.295Z,17.80
2018-09-03T15:16:36.655Z,17.80
2018-09-03T15:19:06.642Z,17.90
2018-09-03T15:21:36.298Z,17.80
2018-09-03T15:24:06.254Z,17.80
2018-09-03T15:26:35.683Z,17.80
2018-09-03T15:29:05.170Z,17.80
2018-09-03T15:31:34.536Z,17.70
2018-09-03T15:34:04.035Z,17.70
2018-09-03T15:36:33.455Z,17.70
2018-09-03T15:39:02.845Z,17.60
2018-09-03T15:41:32.211Z,17.60
2018-09-03T15:44:01.669Z,17.70
2018-09-03T15:46:31.022Z,17.70
2018-09-03T15:49:00.501Z,17.80
2018-09-03T15:51:29.846Z,17.80
2018-09-03T15:53:59.453Z,17.80
2018-09-03T15:56:28.812Z,17.80
2018-09-03T15:58:58.259Z,17.90
2018-09-03T16:01:27.631Z,17.90
2018-09-03T16:03:57.082Z,18.00
2018-09-03T16:06:26.454Z,18.00
2018-09-03T16:08:55.860Z,18.10
2018-09-03T16:11:25.259Z,18.10
2018-09-03T16:13:54.791Z,18.10
2018-09-03T16:16:24.168Z,18.10
2018-09-03T16:18:54.606Z,18.00
2018-09-03T16:21:23.983Z,18.00
2018-09-03T16:23:53.418Z,18.00
2018-09-03T16:26:22.781Z,18.00
2018-09-03T16:28:52.210Z,18.00
2018-09-03T16:31:21.562Z,17.90
2018-09-03T16:33:51.034Z,17.80
2018-09-03T16:36:20.410Z,17.80
2018-09-03T16:38:49.992Z,17.90
2018-09-03T16:41:19.323Z,17.80
2018-09-03T16:43:49.802Z,17.80
2018-09-03T16:46:19.199Z,17.70
2018-09-03T16:48:48.676Z,17.60
2018-09-03T16:51:18.037Z,17.60
2018-09-03T16:53:47.482Z,17.60
2018-09-03T16:56:16.886Z,17.70
2018-09-03T16:58:46.459Z,17.70
2018-09-03T17:01:16.018Z,17.70
2018-09-03T17:03:45.310Z,17.60
2018-09-03T17:06:14.685Z,17.60
2018-09-03T17:08:44.223Z,17.50
2018-09-03T17:11:13.590Z,17.40
2018-09-03T17:13:42.996Z,17.40
2018-09-03T17:16:12.378Z,17.40
2018-09-03T17:18:41.799Z,17.30
2018-09-03T17:21:11.166Z,17.30
2018-09-03T17:23:40.531Z,17.30
2018-09-03T17:26:09.902Z,17.30
2018-09-03T17:28:39.484Z,17.30
2018-09-03T17:31:08.821Z,17.20
2018-09-03T17:33:38.314Z,17.20
2018-09-03T17:36:07.706Z,17.20
2018-09-03T17:38:37.232Z,17.10
2018-09-03T17:41:06.609Z,17.10
2018-09-03T17:43:36.037Z,17.00
2018-09-03T17:46:05.515Z,17.00
2018-09-03T17:48:34.914Z,16.90
2018-09-03T17:51:04.256Z,16.90
2018-09-03T17:53:33.767Z,16.90
2018-09-03T17:56:03.113Z,16.80
2018-09-03T17:58:32.542Z,16.90
2018-09-03T18:01:02.202Z,16.90
2018-09-03T18:03:31.630Z,16.80
2018-09-03T18:06:00.998Z,16.80
2018-09-03T18:08:30.418Z,16.80
2018-09-03T18:10:59.795Z,16.70
2018-09-03T18:13:29.283Z,16.70
2018-09-03T18:15:58.661Z,16.60
2018-09-03T18:18:28.431Z,16.60
2018-09-03T18:20:57.786Z,16.50
2018-09-03T18:23:27.285Z,16.50
2018-09-03T18:25:56.715Z,16.50
2018-09-03T18:28:26.212Z,16.50
2018-09-03T18:30:55.548Z,16.50
2018-09-03T18:33:25.034Z,16.40
2018-09-03T18:35:54.463Z,16.40
2018-09-03T18:38:24.053Z,16.40
2018-09-03T18:40:53.407Z,16.30
2018-09-03T18:43:22.830Z,16.30
2018-09-03T18:45:52.187Z,16.20
2018-09-03T18:48:21.638Z,16.20
2018-09-03T18:50:50.981Z,16.30
2018-09-03T18:53:20.437Z,16.20
2018-09-03T18:55:49.978Z,16.20
2018-09-03T18:58:19.395Z,16.20
2018-09-03T19:00:48.809Z,16.10
2018-09-03T19:03:18.239Z,16.10
2018-09-03T19:05:47.611Z,16.00
2018-09-03T19:08:17.051Z,16.00
2018-09-03T19:10:46.405Z,16.00
2018-09-03T19:13:15.765Z,16.10
2018-09-03T19:15:45.271Z,16.00
2018-09-03T19:18:14.633Z,16.00
2018-09-03T19:20:44.023Z,16.00
2018-09-03T19:23:13.860Z,16.10
2018-09-03T19:25:43.218Z,16.10
2018-09-03T19:28:12.683Z,16.10
2018-09-03T19:30:42.044Z,16.10
2018-09-03T19:33:11.421Z,16.00
2018-09-03T19:35:40.789Z,16.00
2018-09-03T19:38:10.316Z,16.00
2018-09-03T19:40:39.686Z,16.00
2018-09-03T19:43:09.201Z,16.10
2018-09-03T19:45:38.558Z,16.10
2018-09-03T19:48:07.986Z,16.10
2018-09-03T19:50:37.531Z,16.10
2018-09-03T19:53:06.956Z,16.10
2018-09-03T19:55:37.133Z,16.10
2018-09-03T19:58:06.830Z,16.10
2018-09-03T20:00:36.458Z,16.10
2018-09-03T20:03:06.372Z,16.10
2018-09-03T20:05:35.782Z,16.20
2018-09-03T20:08:05.407Z,16.20
2018-09-03T20:10:34.842Z,16.10
2018-09-03T20:13:04.346Z,16.10
2018-09-03T20:15:33.903Z,16.10
2018-09-03T20:18:03.314Z,16.20
2018-09-03T20:20:33.155Z,16.20
2018-09-03T20:23:02.702Z,16.10
2018-09-03T20:25:32.230Z,16.10
2018-09-03T20:28:01.864Z,16.00
2018-09-03T20:30:31.220Z,15.90
2018-09-03T20:33:01.975Z,15.90
2018-09-03T20:35:31.342Z,15.80
2018-09-03T20:38:00.884Z,15.70
2018-09-03T20:40:30.258Z,15.70
2018-09-03T20:42:59.876Z,15.60
2018-09-03T20:45:29.202Z,15.60
2018-09-03T20:47:58.712Z,15.50
2018-09-03T20:50:28.110Z,15.50
2018-09-03T20:52:57.610Z,15.50
2018-09-03T20:55:26.991Z,15.40
2018-09-03T20:57:56.510Z,15.50
2018-09-03T21:00:25.943Z,15.50
2018-09-03T21:02:55.405Z,15.60
2018-09-03T21:05:24.839Z,15.70
2018-09-03T21:07:54.362Z,15.50
2018-09-03T21:10:23.783Z,15.40
2018-09-03T21:12:53.350Z,15.40
2018-09-03T21:15:22.770Z,15.40
2018-09-03T21:17:52.145Z,15.30
2018-09-03T21:20:21.654Z,15.40
2018-09-03T21:22:51.084Z,15.40
2018-09-03T21:25:20.590Z,15.40
2018-09-03T21:27:49.981Z,15.40
2018-09-03T21:30:19.468Z,15.40
2018-09-03T21:32:48.863Z,15.30
2018-09-03T21:35:18.394Z,15.30
2018-09-03T21:37:47.780Z,15.30
2018-09-03T21:40:17.305Z,15.40
2018-09-03T21:42:46.722Z,15.40
2018-09-03T21:45:16.301Z,15.40
2018-09-03T21:47:45.807Z,15.30
2018-09-03T21:50:15.288Z,15.30
2018-09-03T21:52:44.722Z,15.30
2018-09-03T21:55:14.271Z,15.30
2018-09-03T21:57:43.782Z,15.30
2018-09-03T22:00:13.314Z,15.30
2018-09-03T22:02:42.782Z,15.20
2018-09-03T22:05:12.300Z,15.20
2018-09-03T22:07:41.718Z,15.20
2018-09-03T22:10:11.483Z,15.20
2018-09-03T22:12:41.072Z,15.10
2018-09-03T22:15:10.894Z,15.10
2018-09-03T22:17:40.313Z,15.00
2018-09-03T22:20:09.749Z,15.00
2018-09-03T22:22:39.342Z,15.00
2018-09-03T22:25:08.766Z,15.00
2018-09-03T22:27:38.275Z,15.00
2018-09-03T22:30:07.921Z,15.00
2018-09-03T22:32:37.377Z,15.00
2018-09-03T22:35:06.758Z,14.90
2018-09-03T22:37:36.311Z,14.80
2018-09-03T22:40:06.694Z,14.80
2018-09-03T22:42:36.223Z,14.80
2018-09-03T22:45:05.624Z,14.70
2018-09-03T22:47:35.027Z,14.60
2018-09-03T22:50:04.427Z,14.60
2018-09-03T22:52:34.744Z,14.50
2018-09-03T22:55:04.134Z,14.50
2018-09-03T22:57:33.653Z,14.50
2018-09-03T23:00:03.430Z,14.50
2018-09-03T23:02:37.047Z,14.50
2018-09-03T23:05:06.458Z,14.50
2018-09-03T23:07:35.910Z,14.50
2018-09-03T23:10:05.586Z,14.50
2018-09-03T23:12:35.133Z,14.40
2018-09-03T23:15:04.734Z,14.40
2018-09-03T23:17:34.342Z,14.40
2018-09-03T23:20:03.950Z,14.40
2018-09-03T23:22:33.334Z,14.40
2018-09-03T23:25:02.809Z,14.40
2018-09-03T23:27:32.225Z,14.40
2018-09-03T23:30:01.707Z,14.40
2018-09-03T23:32:31.099Z,14.50
2018-09-03T23:35:00.635Z,14.50
2018-09-03T23:37:30.042Z,14.50
2018-09-03T23:39:59.559Z,14.50
2018-09-03T23:42:28.963Z,14.50
2018-09-03T23:44:58.451Z,14.60
2018-09-03T23:47:27.840Z,14.60
2018-09-03T23:49:57.356Z,14.60
2018-09-03T23:52:26.745Z,14.60
2018-09-03T23:54:56.271Z,14.60
2018-09-03T23:57:25.630Z,14.60
2018-09-03T23:59:55.062Z,14.50
